createdAt,value
2022-10-25T00:02:01.590Z,76.78
2022-10-25T00:04:30.609Z,76.80
2022-10-25T00:06:58.250Z,76.80
2022-10-25T00:09:25.906Z,77.24
2022-10-25T00:11:53.888Z,77.37
2022-10-25T00:14:21.716Z,76.91
2022-10-25T00:16:49.820Z,77.11
2022-10-25T00:19:17.463Z,76.59
2022-10-25T00:21:47.131Z,76.62
2022-10-25T00:24:16.201Z,76.71
2022-10-25T00:26:44.590Z,76.82
2022-10-25T00:29:12.860Z,76.89
2022-10-25T00:31:41.379Z,77.19
2022-10-25T00:34:09.067Z,77.66
2022-10-25T00:36:37.206Z,77.26
2022-10-25T00:39:06.616Z,77.28
2022-10-25T00:41:35.270Z,77.36
2022-10-25T00:44:39.038Z,77.17
2022-10-25T00:47:15.795Z,77.23
2022-10-25T00:49:45.165Z,77.32
2022-10-25T00:52:14.192Z,77.20
2022-10-25T00:54:47.185Z,77.67
2022-10-25T00:57:18.511Z,78.03
2022-10-25T00:59:48.051Z,78.17
2022-10-25T01:02:17.586Z,78.19
2022-10-25T01:04:45.745Z,77.71
2022-10-25T01:07:13.697Z,77.31
2022-10-25T01:09:42.238Z,77.05
2022-10-25T01:12:11.636Z,77.32
2022-10-25T01:14:42.936Z,77.67
2022-10-25T01:17:16.861Z,77.64
2022-10-25T01:20:25.571Z,77.34
2022-10-25T01:23:00.807Z,77.63
2022-10-25T01:25:56.668Z,77.54
2022-10-25T01:28:37.639Z,77.49
2022-10-25T01:31:31.773Z,77.81
2022-10-25T01:34:06.629Z,77.62
2022-10-25T01:36:44.178Z,77.72
2022-10-25T01:39:15.673Z,77.35
2022-10-25T01:41:54.688Z,77.37
2022-10-25T01:47:10.726Z,76.80
2022-10-25T01:49:45.437Z,76.60
2022-10-25T01:52:14.814Z,75.90
2022-10-25T01:54:42.562Z,75.71
2022-10-25T01:57:27.912Z,76.13
2022-10-25T02:00:12.482Z,75.61
2022-10-25T02:03:02.553Z,75.43
2022-10-25T02:05:38.430Z,75.06
2022-10-25T02:08:15.794Z,75.33
2022-10-25T02:10:52.257Z,75.00
2022-10-25T02:13:28.057Z,75.15
2022-10-25T02:16:02.327Z,75.61
2022-10-25T02:18:36.481Z,75.84
2022-10-25T02:21:06.854Z,75.76
2022-10-25T02:23:36.271Z,75.67
2022-10-25T02:26:07.005Z,75.74
2022-10-25T02:28:38.441Z,76.10
2022-10-25T02:31:10.058Z,76.20
2022-10-25T02:33:39.481Z,76.04
2022-10-25T02:36:15.177Z,76.29
2022-10-25T02:38:44.042Z,76.47
2022-10-25T02:41:12.267Z,76.33
2022-10-25T02:43:39.891Z,76.24
2022-10-25T02:46:08.649Z,76.26
2022-10-25T02:48:36.701Z,76.07
2022-10-25T02:51:06.380Z,76.41
2022-10-25T02:53:34.783Z,76.15
2022-10-25T02:56:04.421Z,76.31
2022-10-25T02:58:33.773Z,76.67
2022-10-25T03:01:02.341Z,76.39
2022-10-25T03:03:30.261Z,76.66
2022-10-25T03:05:59.783Z,77.10
2022-10-25T03:08:29.351Z,77.03
2022-10-25T03:10:57.127Z,77.29
2022-10-25T03:13:24.773Z,76.80
2022-10-25T03:15:53.040Z,76.71
2022-10-25T03:18:20.757Z,77.15
2022-10-25T03:20:49.376Z,77.15
2022-10-25T03:23:17.621Z,77.01
2022-10-25T03:25:48.775Z,77.02
2022-10-25T03:28:18.465Z,76.91
2022-10-25T03:30:46.491Z,76.76
2022-10-25T03:33:14.193Z,76.37
2022-10-25T03:35:42.354Z,76.21
2022-10-25T03:38:10.065Z,75.86
2022-10-25T03:40:38.050Z,75.74
2022-10-25T03:43:07.175Z,76.03
2022-10-25T03:45:35.267Z,75.65
2022-10-25T03:48:02.921Z,75.48
2022-10-25T03:50:31.113Z,75.16
2022-10-25T03:52:58.817Z,75.19
2022-10-25T03:55:26.743Z,75.89
2022-10-25T03:57:54.355Z,75.71
2022-10-25T04:00:23.435Z,75.44
2022-10-25T04:02:59.346Z,75.51
2022-10-25T04:05:30.674Z,75.28
2022-10-25T04:07:58.439Z,75.45
2022-10-25T04:10:26.827Z,75.42
2022-10-25T04:12:55.277Z,75.44
2022-10-25T04:15:25.208Z,75.57
2022-10-25T04:17:53.986Z,75.40
2022-10-25T04:20:22.626Z,75.13
2022-10-25T04:22:55.002Z,75.52
2022-10-25T04:25:23.562Z,75.54
2022-10-25T04:27:51.510Z,75.57
2022-10-25T04:30:19.187Z,76.01
2022-10-25T04:32:48.349Z,75.51
2022-10-25T04:35:16.364Z,75.97
2022-10-25T04:37:43.989Z,75.68
2022-10-25T04:40:12.930Z,75.92
2022-10-25T04:42:40.581Z,75.90
2022-10-25T04:45:09.324Z,75.48
2022-10-25T04:47:37.363Z,75.95
2022-10-25T04:50:08.374Z,75.95
2022-10-25T04:52:36.079Z,75.83
2022-10-25T04:55:04.154Z,75.96
2022-10-25T04:57:31.831Z,75.94
2022-10-25T05:00:00.029Z,75.76
2022-10-25T05:02:27.746Z,76.08
2022-10-25T05:04:56.145Z,75.86
2022-10-25T05:07:25.110Z,76.29
2022-10-25T05:09:52.749Z,76.09
2022-10-25T05:12:20.368Z,76.01
2022-10-25T05:14:47.998Z,76.12
2022-10-25T05:17:16.005Z,76.05
2022-10-25T05:19:43.963Z,75.87
2022-10-25T05:22:11.624Z,75.87
2022-10-25T05:24:40.823Z,75.89
2022-10-25T05:27:08.829Z,75.98
2022-10-25T05:29:36.598Z,75.97
2022-10-25T05:32:04.701Z,75.68
2022-10-25T05:34:32.640Z,75.75
2022-10-25T05:37:00.321Z,75.82
2022-10-25T05:39:28.117Z,75.54
2022-10-25T05:41:57.438Z,75.34
2022-10-25T05:44:25.066Z,75.57
2022-10-25T05:46:53.203Z,75.54
2022-10-25T05:49:21.063Z,75.45
2022-10-25T05:51:49.507Z,75.95
2022-10-25T05:54:17.314Z,75.78
2022-10-25T05:56:45.559Z,76.14
2022-10-25T05:59:16.090Z,76.04
2022-10-25T06:01:45.983Z,76.10
2022-10-25T06:04:14.942Z,75.90
2022-10-25T06:06:45.171Z,76.04
2022-10-25T06:09:13.898Z,76.07
2022-10-25T06:11:42.355Z,75.95
2022-10-25T06:14:11.071Z,76.07
2022-10-25T06:16:40.893Z,76.13
2022-10-25T06:19:08.943Z,76.43
2022-10-25T06:21:38.216Z,76.04
2022-10-25T06:24:06.659Z,75.65
2022-10-25T06:26:35.101Z,75.26
2022-10-25T06:29:04.968Z,75.16
2022-10-25T06:31:34.399Z,75.25
2022-10-25T06:34:03.781Z,75.10
2022-10-25T06:36:32.661Z,75.59
2022-10-25T06:39:05.487Z,75.73
2022-10-25T06:41:37.354Z,76.46
2022-10-25T06:44:07.159Z,75.66
2022-10-25T06:46:57.884Z,75.61
2022-10-25T06:49:26.455Z,75.03
2022-10-25T06:51:54.699Z,75.23
2022-10-25T06:54:22.370Z,74.32
2022-10-25T06:56:50.643Z,73.79
2022-10-25T06:59:20.296Z,73.77
2022-10-25T07:01:48.647Z,73.72
2022-10-25T07:04:16.624Z,73.80
2022-10-25T07:06:48.868Z,73.75
2022-10-25T07:09:19.102Z,72.91
2022-10-25T07:11:47.542Z,73.15
2022-10-25T07:14:15.462Z,72.79
2022-10-25T07:16:43.593Z,72.78
2022-10-25T07:19:11.312Z,72.86
2022-10-25T07:21:39.785Z,73.11
2022-10-25T07:24:11.115Z,73.29
2022-10-25T07:26:40.335Z,73.24
2022-10-25T07:29:08.214Z,73.74
2022-10-25T07:31:38.786Z,73.78
2022-10-25T07:34:06.955Z,73.61
2022-10-25T07:36:35.566Z,73.60
2022-10-25T07:39:03.230Z,73.41
2022-10-25T07:41:33.291Z,73.17
2022-10-25T07:44:00.922Z,72.97
2022-10-25T07:46:29.251Z,72.87
2022-10-25T07:48:56.869Z,73.04
2022-10-25T07:51:24.811Z,72.83
2022-10-25T07:53:53.818Z,72.02
2022-10-25T07:56:23.699Z,70.85
2022-10-25T07:58:53.387Z,71.10
2022-10-25T08:01:23.020Z,70.44
2022-10-25T08:03:50.821Z,71.46
2022-10-25T08:06:19.057Z,71.42
2022-10-25T08:08:47.314Z,70.66
2022-10-25T08:11:16.240Z,68.36
2022-10-25T08:13:43.891Z,66.83
2022-10-25T08:16:13.501Z,66.88
2022-10-25T08:18:41.164Z,66.78
2022-10-25T08:21:09.439Z,66.38
2022-10-25T08:23:37.099Z,65.06
2022-10-25T08:26:05.625Z,62.28
2022-10-25T08:28:33.345Z,60.63
2022-10-25T08:31:02.366Z,60.09
2022-10-25T08:33:31.979Z,59.88
2022-10-25T08:36:03.926Z,59.36
2022-10-25T08:38:31.587Z,57.63
2022-10-25T08:41:10.194Z,57.32
2022-10-25T08:43:53.327Z,56.71
2022-10-25T08:46:25.353Z,56.25
2022-10-25T08:49:15.942Z,54.77
2022-10-25T08:51:48.174Z,55.45
2022-10-25T08:54:23.994Z,55.32
2022-10-25T08:57:10.882Z,54.45
2022-10-25T08:59:45.534Z,54.05
2022-10-25T09:02:20.009Z,56.93
2022-10-25T09:04:49.732Z,55.91
2022-10-25T09:07:40.665Z,53.45
2022-10-25T09:10:22.933Z,55.73
2022-10-25T09:13:00.386Z,56.02
2022-10-25T09:15:43.399Z,56.61
2022-10-25T09:18:17.404Z,57.37
2022-10-25T09:20:51.586Z,56.54
2022-10-25T09:23:27.710Z,55.42
2022-10-25T09:26:03.966Z,56.31
2022-10-25T09:28:46.659Z,53.32
2022-10-25T09:31:19.711Z,55.73
2022-10-25T09:33:49.932Z,53.46
2022-10-25T09:36:19.733Z,55.26
2022-10-25T09:38:53.009Z,53.62
2022-10-25T09:41:26.798Z,54.41
2022-10-25T09:43:59.539Z,55.35
2022-10-25T09:46:36.402Z,57.01
2022-10-25T09:49:14.939Z,55.34
2022-10-25T09:51:54.429Z,55.33
2022-10-25T09:54:29.425Z,56.73
2022-10-25T09:56:57.643Z,54.45
2022-10-25T09:59:27.724Z,56.56
2022-10-25T10:01:56.635Z,54.90
2022-10-25T10:04:28.233Z,53.89
2022-10-25T10:07:01.114Z,52.95
2022-10-25T10:09:32.157Z,53.64
2022-10-25T10:12:03.993Z,52.18
2022-10-25T10:14:37.802Z,52.48
2022-10-25T10:17:08.030Z,53.26
2022-10-25T10:19:35.650Z,53.91
2022-10-25T10:22:10.923Z,53.01
2022-10-25T10:24:40.565Z,53.51
2022-10-25T10:27:11.245Z,53.42
2022-10-25T10:29:52.883Z,51.79
2022-10-25T10:32:27.076Z,53.69
2022-10-25T10:34:57.861Z,51.83
2022-10-25T10:37:27.739Z,49.83
2022-10-25T10:39:58.385Z,48.77
2022-10-25T10:42:35.583Z,49.32
2022-10-25T10:45:15.420Z,49.08
2022-10-25T10:47:45.294Z,50.52
2022-10-25T10:50:23.185Z,49.03
2022-10-25T10:53:00.189Z,51.41
2022-10-25T10:55:32.246Z,53.99
2022-10-25T10:58:04.579Z,51.89
2022-10-25T11:00:34.905Z,54.56
2022-10-25T11:03:02.661Z,54.20
2022-10-25T11:05:33.065Z,54.95
2022-10-25T11:08:14.442Z,55.12
2022-10-25T11:10:42.131Z,56.56
2022-10-25T11:13:12.733Z,54.34
2022-10-25T11:16:25.745Z,53.55
2022-10-25T11:19:08.940Z,52.97
2022-10-25T11:22:07.591Z,56.85
2022-10-25T11:24:46.313Z,53.39
2022-10-25T11:27:23.612Z,52.58
2022-10-25T11:30:03.389Z,53.72
2022-10-25T11:33:02.685Z,50.50
2022-10-25T11:35:45.768Z,49.25
2022-10-25T11:38:21.122Z,50.55
2022-10-25T11:41:01.003Z,50.20
2022-10-25T11:43:47.270Z,49.05
2022-10-25T11:46:24.989Z,51.19
2022-10-25T11:49:09.790Z,49.25
2022-10-25T11:51:44.812Z,49.91
2022-10-25T11:54:26.271Z,50.03
2022-10-25T11:57:08.613Z,48.15
2022-10-25T11:59:49.462Z,50.04
2022-10-25T12:02:47.665Z,49.14
2022-10-25T12:05:27.895Z,51.91
2022-10-25T12:08:08.753Z,49.55
2022-10-25T12:10:40.738Z,52.64
2022-10-25T12:13:16.608Z,55.17
2022-10-25T12:15:47.672Z,53.15
2022-10-25T12:18:17.386Z,51.71
2022-10-25T12:20:48.559Z,49.48
2022-10-25T12:23:19.912Z,50.23
2022-10-25T12:25:51.515Z,49.94
2022-10-25T12:28:28.174Z,48.01
2022-10-25T12:31:01.700Z,51.88
2022-10-25T12:33:36.173Z,51.75
2022-10-25T12:36:07.829Z,50.04
2022-10-25T12:38:37.454Z,54.68
2022-10-25T12:41:10.911Z,52.88
2022-10-25T12:43:48.842Z,55.05
2022-10-25T12:46:50.134Z,54.44
2022-10-25T12:49:43.431Z,56.65
2022-10-25T12:52:25.074Z,55.00
2022-10-25T12:55:12.247Z,56.35
2022-10-25T12:57:53.786Z,54.26
2022-10-25T13:00:25.253Z,53.66
2022-10-25T13:03:21.726Z,54.95
2022-10-25T13:06:15.598Z,53.77
2022-10-25T13:08:44.415Z,55.95
2022-10-25T13:11:13.742Z,53.87
2022-10-25T13:13:49.935Z,53.38
2022-10-25T13:16:26.501Z,55.38
2022-10-25T13:19:30.636Z,54.35
2022-10-25T13:22:39.530Z,56.16
2022-10-25T13:25:18.333Z,54.87
2022-10-25T13:28:20.429Z,53.92
2022-10-25T13:30:48.741Z,54.48
2022-10-25T13:33:33.610Z,54.21
2022-10-25T13:36:06.964Z,53.86
2022-10-25T13:38:39.974Z,55.46
2022-10-25T13:41:17.557Z,54.79
2022-10-25T13:43:59.671Z,56.88
2022-10-25T13:46:32.301Z,54.24
2022-10-25T13:49:02.978Z,54.64
2022-10-25T13:51:33.628Z,54.03
2022-10-25T13:54:08.398Z,54.81
2022-10-25T13:56:51.375Z,53.84
2022-10-25T13:59:37.685Z,53.88
2022-10-25T14:02:17.600Z,52.83
2022-10-25T14:04:46.863Z,55.68
2022-10-25T14:07:49.590Z,57.90
2022-10-25T14:10:36.453Z,55.18
2022-10-25T14:13:20.295Z,56.24
2022-10-25T14:15:57.215Z,54.78
2022-10-25T14:18:26.877Z,55.21
2022-10-25T14:21:00.062Z,56.48
2022-10-25T14:23:30.763Z,55.11
2022-10-25T14:26:00.755Z,53.38
2022-10-25T14:28:30.259Z,52.94
2022-10-25T14:31:00.638Z,53.97
2022-10-25T14:33:35.485Z,55.48
2022-10-25T14:36:12.679Z,55.49
2022-10-25T14:38:51.782Z,54.83
2022-10-25T14:41:23.557Z,53.66
2022-10-25T14:43:51.500Z,54.87
2022-10-25T14:46:21.172Z,56.27
2022-10-25T14:48:50.138Z,55.50
2022-10-25T14:51:23.108Z,55.69
2022-10-25T14:53:55.250Z,56.69
2022-10-25T14:56:31.113Z,57.32
2022-10-25T14:59:00.688Z,57.55
2022-10-25T15:01:29.173Z,58.25
2022-10-25T15:03:59.340Z,58.79
2022-10-25T15:06:32.505Z,58.93
2022-10-25T15:09:41.370Z,58.12
2022-10-25T15:12:16.688Z,56.47
2022-10-25T15:14:46.842Z,56.54
2022-10-25T15:17:24.693Z,57.25
2022-10-25T15:20:05.768Z,57.58
2022-10-25T15:22:43.269Z,58.32
2022-10-25T15:25:20.663Z,58.67
2022-10-25T15:27:49.118Z,58.47
2022-10-25T15:30:39.427Z,58.46
2022-10-25T15:33:11.598Z,58.84
2022-10-25T15:35:48.806Z,59.21
2022-10-25T15:38:19.241Z,59.22
2022-10-25T15:40:47.985Z,59.08
2022-10-25T15:43:16.058Z,59.63
2022-10-25T15:45:44.052Z,59.77
2022-10-25T15:48:15.963Z,59.75
2022-10-25T15:50:48.483Z,59.71
2022-10-25T15:53:17.776Z,59.65
2022-10-25T15:55:46.145Z,60.48
2022-10-25T15:58:13.784Z,60.94
2022-10-25T16:00:42.688Z,61.58
2022-10-25T16:03:23.298Z,61.88
2022-10-25T16:05:52.037Z,62.65
2022-10-25T16:08:21.042Z,62.55
2022-10-25T16:10:49.063Z,62.80
2022-10-25T16:13:26.957Z,63.25
2022-10-25T16:15:55.333Z,63.91
2022-10-25T16:20:57.983Z,64.79
2022-10-25T16:23:28.170Z,64.86
2022-10-25T16:25:56.718Z,65.30
2022-10-25T16:30:57.270Z,66.37
2022-10-25T16:33:24.905Z,66.52
2022-10-25T16:35:52.543Z,67.13
2022-10-25T16:38:20.172Z,67.28
2022-10-25T16:40:49.634Z,67.15
2022-10-25T16:43:17.251Z,67.38
2022-10-25T16:45:45.487Z,67.95
2022-10-25T16:48:13.128Z,68.52
2022-10-25T16:50:41.682Z,68.21
2022-10-25T16:53:10.961Z,68.74
2022-10-25T16:55:38.854Z,68.84
2022-10-25T16:58:07.843Z,68.89
2022-10-25T17:00:36.359Z,69.17
2022-10-25T17:03:04.253Z,69.01
2022-10-25T17:05:33.888Z,69.64
2022-10-25T17:08:01.547Z,69.87
2022-10-25T17:10:30.083Z,69.98
2022-10-25T17:13:03.067Z,70.74
2022-10-25T17:15:33.065Z,71.22
2022-10-25T17:18:00.776Z,71.70
2022-10-25T17:20:28.649Z,71.85
2022-10-25T17:22:57.159Z,71.98
2022-10-25T17:25:25.174Z,71.97
2022-10-25T17:27:53.551Z,72.42
2022-10-25T17:30:21.993Z,72.73
2022-10-25T17:32:51.216Z,72.59
2022-10-25T17:35:19.654Z,72.98
2022-10-25T17:37:47.557Z,73.20
2022-10-25T17:40:15.598Z,72.90
2022-10-25T17:42:43.229Z,73.09
2022-10-25T17:45:11.926Z,73.00
2022-10-25T17:47:42.504Z,73.07
2022-10-25T17:50:13.127Z,72.93
2022-10-25T17:52:42.202Z,72.99
2022-10-25T17:55:11.605Z,73.07
2022-10-25T17:57:39.243Z,73.16
2022-10-25T18:00:07.922Z,73.52
2022-10-25T18:02:44.004Z,73.74
2022-10-25T18:05:20.137Z,73.80
2022-10-25T18:07:49.605Z,73.71
2022-10-25T18:10:17.759Z,73.70
2022-10-25T18:12:45.692Z,72.89
2022-10-25T18:15:13.694Z,73.10
2022-10-25T18:17:41.942Z,74.19
2022-10-25T18:20:10.393Z,75.45
2022-10-25T18:22:39.386Z,76.15
2022-10-25T18:25:08.586Z,76.77
2022-10-25T18:27:36.389Z,75.92
2022-10-25T18:30:05.909Z,75.31
2022-10-25T18:32:36.183Z,74.98
2022-10-25T18:35:04.993Z,75.39
2022-10-25T18:37:32.621Z,75.19
2022-10-25T18:40:01.935Z,75.45
2022-10-25T18:42:29.598Z,75.47
2022-10-25T18:44:57.615Z,75.21
2022-10-25T18:47:25.527Z,75.37
2022-10-25T18:49:53.555Z,75.42
2022-10-25T18:52:22.265Z,75.53
2022-10-25T18:54:50.103Z,75.29
2022-10-25T18:57:19.390Z,75.35
2022-10-25T18:59:47.526Z,75.60
2022-10-25T19:02:16.001Z,75.54
2022-10-25T19:04:43.773Z,75.75
2022-10-25T19:07:11.675Z,75.69
2022-10-25T19:09:39.301Z,75.64
2022-10-25T19:12:07.254Z,75.36
2022-10-25T19:14:36.264Z,75.59
2022-10-25T19:17:04.385Z,75.40
2022-10-25T19:19:32.034Z,75.44
2022-10-25T19:21:59.666Z,75.45
2022-10-25T19:24:27.315Z,75.34
2022-10-25T19:26:55.011Z,75.67
2022-10-25T19:29:22.674Z,75.33
2022-10-25T19:31:52.694Z,74.83
2022-10-25T19:34:20.588Z,75.06
2022-10-25T19:36:48.851Z,75.03
2022-10-25T19:39:16.515Z,75.22
2022-10-25T19:41:44.482Z,75.30
2022-10-25T19:44:12.122Z,75.42
2022-10-25T19:46:39.758Z,75.24
2022-10-25T19:49:11.296Z,75.08
2022-10-25T19:51:39.004Z,75.14
2022-10-25T19:54:06.701Z,75.16
2022-10-25T19:56:37.143Z,75.64
2022-10-25T19:59:05.270Z,75.62
2022-10-25T20:01:33.882Z,76.06
2022-10-25T20:04:01.628Z,76.05
2022-10-25T20:06:32.345Z,76.22
2022-10-25T20:09:01.364Z,76.32
2022-10-25T20:11:29.661Z,76.15
2022-10-25T20:13:59.525Z,75.83
2022-10-25T20:16:28.209Z,75.85
2022-10-25T20:18:56.243Z,76.14
2022-10-25T20:21:26.103Z,76.07
2022-10-25T20:23:57.752Z,76.24
2022-10-25T20:26:27.321Z,76.55
2022-10-25T20:28:56.304Z,76.74
2022-10-25T20:31:25.791Z,76.67
2022-10-25T20:33:54.801Z,76.65
2022-10-25T20:36:23.137Z,76.81
2022-10-25T20:38:51.383Z,76.95
2022-10-25T20:41:22.337Z,77.08
2022-10-25T20:43:51.567Z,77.01
2022-10-25T20:46:20.470Z,76.96
2022-10-25T20:48:48.136Z,76.73
2022-10-25T20:51:16.704Z,76.54
2022-10-25T20:53:45.609Z,76.55
2022-10-25T20:56:14.231Z,76.65
2022-10-25T20:58:43.805Z,76.55
2022-10-25T21:01:12.120Z,76.51
2022-10-25T21:03:40.444Z,76.59
2022-10-25T21:06:10.748Z,76.57
2022-10-25T21:08:38.934Z,76.54
2022-10-25T21:11:09.339Z,76.60
2022-10-25T21:13:37.674Z,76.42
2022-10-25T21:16:08.548Z,76.30
2022-10-25T21:18:37.180Z,76.32
2022-10-25T21:21:07.830Z,76.52
2022-10-25T21:23:35.752Z,76.41
2022-10-25T21:26:05.378Z,76.38
2022-10-25T21:28:34.697Z,76.69
2022-10-25T21:31:03.157Z,76.53
2022-10-25T21:33:32.270Z,76.71
2022-10-25T21:36:04.193Z,76.97
2022-10-25T21:38:31.875Z,76.60
2022-10-25T21:41:07.173Z,76.55
2022-10-25T21:43:35.009Z,76.63
2022-10-25T21:46:05.602Z,76.60
2022-10-25T21:48:35.749Z,76.61
2022-10-25T21:51:03.808Z,76.36
2022-10-25T21:53:31.637Z,76.28
2022-10-25T21:56:07.379Z,76.08
2022-10-25T21:58:35.204Z,76.04
2022-10-25T22:01:03.039Z,76.07
2022-10-25T22:03:31.312Z,76.17
2022-10-25T22:06:00.612Z,76.46
2022-10-25T22:08:28.249Z,76.59
2022-10-25T22:13:32.948Z,76.69
2022-10-25T22:16:02.978Z,75.93
2022-10-25T22:18:30.810Z,75.89
2022-10-25T22:21:02.189Z,75.54
2022-10-25T22:23:31.424Z,75.80
2022-10-25T22:26:02.594Z,75.89
2022-10-25T22:28:30.366Z,75.98
2022-10-25T22:30:58.637Z,76.28
2022-10-25T22:33:26.428Z,76.38
2022-10-25T22:35:54.176Z,77.20
2022-10-25T22:38:23.162Z,77.77
2022-10-25T22:40:57.661Z,78.32
2022-10-25T22:43:25.430Z,78.63
2022-10-25T22:45:53.897Z,78.67
2022-10-25T22:48:22.048Z,78.27
2022-10-25T22:50:51.381Z,78.09
2022-10-25T22:53:19.994Z,77.95
2022-10-25T22:55:56.303Z,77.64
2022-10-25T22:58:24.965Z,77.57
2022-10-25T23:00:59.022Z,77.76
2022-10-25T23:03:26.845Z,77.77
2022-10-25T23:05:58.864Z,78.07
2022-10-25T23:08:26.859Z,77.80
2022-10-25T23:11:04.719Z,77.77
2022-10-25T23:13:34.196Z,77.49
2022-10-25T23:16:03.736Z,77.56
2022-10-25T23:18:31.417Z,77.54
2022-10-25T23:21:02.006Z,77.60
2022-10-25T23:23:34.679Z,77.61
2022-10-25T23:26:04.171Z,77.66
2022-10-25T23:28:32.606Z,77.71
2022-10-25T23:31:08.248Z,77.73
2022-10-25T23:33:36.220Z,77.77
2022-10-25T23:36:05.860Z,77.69
2022-10-25T23:38:33.570Z,77.62
2022-10-25T23:41:01.866Z,77.73
2022-10-25T23:43:31.018Z,77.66
2022-10-25T23:45:59.315Z,77.67
2022-10-25T23:48:27.324Z,77.71
2022-10-25T23:50:56.755Z,77.37
2022-10-25T23:53:24.830Z,77.46
2022-10-25T23:55:53.346Z,77.17
2022-10-25T23:58:21.451Z,77.17
